Time;durP1;ratioP1;P1;durP2;ratioP2;P2;SDS_P1;SDS_P2;PMS_P1;PMS_P2;Temp;Humidity;BMP_temperature;BMP_pressure;BME280_temperature;BME280_humidity;BME280_pressure;Samples;Min_cycle;Max_cycle;Signal;HPM_P1;HPM_P2
2022/12/03 00:01:32;;;;;;;;;;;;;;;1.75;88.44;102515.75;5086620;28;19932;-72
2022/12/03 00:03:59;;;;;;;;;;;;;;;1.74;88.87;102503.66;5088139;28;20562;-72
2022/12/03 00:06:24;;;;;;;;;;;;;;;1.76;89.27;102503.69;5089206;28;19982;-72
2022/12/03 00:08:50;;;;;;;;;;;;;;;1.77;89.40;102511.47;5090218;28;20023;-72
2022/12/03 00:11:15;;;;;;;;;;;;;;;1.78;90.01;102505.44;5088681;28;19947;-72
2022/12/03 00:13:40;;;;;;;;;;;;;;;1.77;89.45;102511.47;5089407;28;19926;-72
2022/12/03 00:16:06;;;;;;;;;;;;;;;1.80;90.11;102506.38;5088374;28;20168;-72
2022/12/03 00:18:31;;;;;;;;;;;;;;;1.81;90.07;102502.09;5081027;28;20262;-72
2022/12/03 00:20:56;;;;;;;;;;;;;;;1.80;89.65;102490.88;5085045;28;20173;-72
2022/12/03 00:23:21;;;;;;;;;;;;;;;1.80;89.36;102503.81;5087186;28;19935;-72
2022/12/03 00:25:47;;;;;;;;;;;;;;;1.81;89.42;102495.19;5084770;28;19920;-72
2022/12/03 00:28:12;;;;;;;;;;;;;;;1.84;89.57;102486.66;5091099;28;20111;-72
2022/12/03 00:30:37;;;;;;;;;;;;;;;1.83;89.53;102490.06;5086895;28;19928;-72
2022/12/03 00:33:02;;;;;;;;;;;;;;;1.83;89.57;102492.66;5084524;28;20194;-72
2022/12/03 00:35:27;;;;;;;;;;;;;;;1.83;89.28;102495.22;5088210;28;19916;-72
2022/12/03 00:37:53;;;;;;;;;;;;;;;1.83;89.22;102487.50;5084455;28;19925;-72
2022/12/03 00:40:19;;;;;;;;;;;;;;;1.82;89.28;102485.72;5086694;28;19924;-72
2022/12/03 00:42:44;;;;;;;;;;;;;;;1.81;89.34;102489.16;5087979;28;19966;-72
2022/12/03 00:45:09;;;;;;;;;;;;;;;1.82;89.47;102485.72;5090500;28;19954;-72
2022/12/03 00:47:35;;;;;;;;;;;;;;;1.81;89.81;102484.00;5088112;28;19930;-72
2022/12/03 00:50:00;;;;;;;;;;;;;;;1.82;89.95;102489.22;5091437;28;19920;-72
2022/12/03 00:52:25;;;;;;;;;;;;;;;1.84;90.24;102482.34;5089305;28;19920;-72
2022/12/03 00:54:50;;;;;;;;;;;;;;;1.84;89.73;102481.50;5084796;28;20341;-72
2022/12/03 00:57:16;;;;;;;;;;;;;;;1.85;90.00;102476.34;5090782;28;19966;-72
2022/12/03 00:59:41;;;;;;;;;;;;;;;1.85;89.50;102483.22;5084408;28;19927;-72
2022/12/03 01:02:06;;;;;;;;;;;;;;;1.84;89.67;102484.94;5088506;28;19920;-71
2022/12/03 01:04:32;;;;;;;;;;;;;;;1.82;89.23;102480.56;5089592;28;20120;-72
2022/12/03 01:06:58;;;;;;;;;;;;;;;1.82;89.56;102478.88;5089019;28;19959;-72
2022/12/03 01:09:23;;;;;;;;;;;;;;;1.82;89.58;102481.47;5090487;28;19920;-72
2022/12/03 01:11:49;;;;;;;;;;;;;;;1.81;89.29;102473.66;5090000;28;19912;-72
2022/12/03 01:14:15;;;;;;;;;;;;;;;1.78;89.78;102474.44;5090458;28;20156;-72
2022/12/03 01:16:41;;;;;;;;;;;;;;;1.76;89.51;102465.81;5088349;28;19973;-72
2022/12/03 01:19:07;;;;;;;;;;;;;;;1.77;89.74;102469.28;5083589;28;20482;-72
2022/12/03 01:21:32;;;;;;;;;;;;;;;1.77;90.05;102467.56;5083561;28;19927;-72
2022/12/03 01:23:57;;;;;;;;;;;;;;;1.77;90.33;102477.91;5086862;28;19986;-72
2022/12/03 01:26:24;;;;;;;;;;;;;;;1.76;90.01;102470.97;5085040;28;19924;-72
2022/12/03 01:28:49;;;;;;;;;;;;;;;1.77;89.74;102472.72;5087329;28;19987;-71
2022/12/03 01:33:58;;;;;;;;;;;;;;;1.78;90.08;102464.13;5086806;28;19951;-72
2022/12/03 01:36:24;;;;;;;;;;;;;;;1.75;90.33;102471.81;5092006;28;20196;-72
2022/12/03 01:38:49;;;;;;;;;;;;;;;1.77;90.48;102467.56;5091293;28;19924;-71
2022/12/03 01:41:18;;;;;;;;;;;;;;;1.76;90.28;102463.22;5088429;28;19924;-72
2022/12/03 01:43:44;;;;;;;;;;;;;;;1.79;90.74;102460.72;5068960;28;20245;-72
2022/12/03 01:46:15;;;;;;;;;;;;;;;1.82;90.73;102463.38;5090359;28;19916;-72
2022/12/03 01:48:40;;;;;;;;;;;;;;;1.83;90.60;102462.50;5089953;28;19920;-72
2022/12/03 01:51:06;;;;;;;;;;;;;;;1.85;90.29;102454.81;5089758;28;19971;-72
2022/12/03 01:53:31;;;;;;;;;;;;;;;1.88;90.30;102454.88;5087463;28;19913;-72
2022/12/03 01:55:56;;;;;;;;;;;;;;;1.91;90.57;102454.91;5089782;28;19941;-72
2022/12/03 01:58:25;;;;;;;;;;;;;;;1.94;90.37;102460.16;5087134;28;19924;-72
2022/12/03 02:00:50;;;;;;;;;;;;;;;1.98;90.66;102459.38;5089131;28;19931;-72
2022/12/03 02:03:24;;;;;;;;;;;;;;;1.99;90.58;102461.13;5085520;28;19995;-72
2022/12/03 02:05:49;;;;;;;;;;;;;;;2.02;90.54;102458.63;5087065;28;19973;-72
2022/12/03 02:08:44;;;;;;;;;;;;;;;2.01;89.99;102461.19;5090452;28;19924;-72
2022/12/03 02:11:21;;;;;;;;;;;;;;;2.01;90.20;102459.44;5077392;28;20302;-72
2022/12/03 02:13:50;;;;;;;;;;;;;;;1.98;89.38;102455.94;5088397;28;20081;-71
2022/12/03 02:16:15;;;;;;;;;;;;;;;1.97;89.68;102457.66;5087711;28;19916;-72
2022/12/03 02:18:40;;;;;;;;;;;;;;;1.95;89.94;102456.75;5089778;28;19943;-72
2022/12/03 02:21:12;;;;;;;;;;;;;;;1.95;90.20;102456.75;5088958;28;20008;-72
2022/12/03 02:23:43;;;;;;;;;;;;;;;1.91;89.90;102449.75;5089061;28;19920;-72
2022/12/03 02:26:09;;;;;;;;;;;;;;;1.92;90.28;102460.13;5087409;28;19923;-72
2022/12/03 02:28:34;;;;;;;;;;;;;;;1.92;90.15;102449.78;5087553;28;19908;-72
2022/12/03 02:30:59;;;;;;;;;;;;;;;1.92;90.25;102456.69;5087591;28;20150;-72
2022/12/03 02:33:24;;;;;;;;;;;;;;;1.90;90.41;102448.03;5086453;28;20527;-72
2022/12/03 02:35:50;;;;;;;;;;;;;;;1.90;90.46;102451.47;5084437;28;19924;-72
2022/12/03 02:38:26;;;;;;;;;;;;;;;1.89;90.52;102451.44;5089803;28;19983;-71
2022/12/03 02:40:54;;;;;;;;;;;;;;;1.86;90.68;102454.84;5084788;28;20123;-71
2022/12/03 02:43:20;;;;;;;;;;;;;;;1.85;90.73;102447.91;5084712;28;20168;-72
2022/12/03 02:45:47;;;;;;;;;;;;;;;1.82;90.93;102442.72;5089197;28;19951;-72
2022/12/03 02:48:12;;;;;;;;;;;;;;;1.82;91.00;102442.72;5089549;28;19916;-72
2022/12/03 02:50:40;;;;;;;;;;;;;;;1.83;91.17;102440.97;5088690;28;19912;-72
2022/12/03 02:53:07;;;;;;;;;;;;;;;1.82;91.18;102439.22;5089470;28;20227;-72
2022/12/03 02:55:35;;;;;;;;;;;;;;;1.83;91.37;102430.66;5085240;28;20116;-72
2022/12/03 02:58:02;;;;;;;;;;;;;;;1.82;90.82;102428.91;5069692;28;20093;-72
2022/12/03 03:00:27;;;;;;;;;;;;;;;1.82;91.23;102421.13;5084721;28;19924;-72
2022/12/03 03:02:52;;;;;;;;;;;;;;;1.81;91.19;102422.00;5087593;28;19920;-72
2022/12/03 03:05:19;;;;;;;;;;;;;;;1.83;91.57;102428.06;5088244;28;19976;-72
2022/12/03 03:07:45;;;;;;;;;;;;;;;1.84;91.95;102428.09;5086591;28;19991;-72
2022/12/03 03:10:11;;;;;;;;;;;;;;;1.86;91.66;102420.38;5087909;28;19908;-72
2022/12/03 03:12:37;;;;;;;;;;;;;;;1.84;91.28;102411.75;5086561;28;20253;-72
2022/12/03 03:15:03;;;;;;;;;;;;;;;1.86;91.44;102418.66;5087531;28;19925;-72
2022/12/03 03:17:28;;;;;;;;;;;;;;;1.86;91.47;102426.41;5085690;28;19920;-72
2022/12/03 03:19:53;;;;;;;;;;;;;;;1.87;92.02;102422.13;5087339;28;19927;-71
2022/12/03 03:22:19;;;;;;;;;;;;;;;1.89;92.08;102417.84;5087577;28;19929;-72
2022/12/03 03:24:44;;;;;;;;;;;;;;;1.87;91.84;102416.94;5076769;28;19948;-72
2022/12/03 03:27:09;;;;;;;;;;;;;;;1.88;92.30;102422.16;5086145;28;19931;-72
2022/12/03 03:29:35;;;;;;;;;;;;;;;1.89;92.64;102417.84;5089519;28;20135;-71
2022/12/03 03:32:01;;;;;;;;;;;;;;;1.90;92.39;102422.19;5087963;28;19924;-72
2022/12/03 03:34:27;;;;;;;;;;;;;;;1.90;92.28;102412.72;5087625;28;19987;-72
2022/12/03 03:36:52;;;;;;;;;;;;;;;1.88;92.23;102416.13;5090949;28;19924;-72
2022/12/03 03:39:17;;;;;;;;;;;;;;;1.87;92.22;102412.69;5089425;28;19931;-72
2022/12/03 03:41:44;;;;;;;;;;;;;;;1.89;92.33;102415.25;5091609;28;20045;-71
2022/12/03 03:44:10;;;;;;;;;;;;;;;1.91;93.07;102408.41;5090100;28;19919;-72
2022/12/03 03:46:36;;;;;;;;;;;;;;;1.94;93.42;102411.06;5093300;28;20261;-72
2022/12/03 03:49:02;;;;;;;;;;;;;;;1.95;93.36;102404.19;5090014;28;19918;-72
2022/12/03 03:51:27;;;;;;;;;;;;;;;1.97;93.27;102411.13;5092723;28;20359;-72
2022/12/03 03:53:53;;;;;;;;;;;;;;;2.00;93.38;102407.72;5092572;28;19947;-72
2022/12/03 03:56:19;;;;;;;;;;;;;;;1.96;92.70;102401.63;5090217;28;20115;-72
2022/12/03 03:58:44;;;;;;;;;;;;;;;1.94;92.44;102400.72;5093774;28;19923;-73
2022/12/03 04:01:11;;;;;;;;;;;;;;;1.96;92.85;102398.19;5090567;28;19986;-73
2022/12/03 04:03:36;;;;;;;;;;;;;;;1.96;93.12;102406.78;5092736;28;19946;-73
2022/12/03 04:06:02;;;;;;;;;;;;;;;1.99;93.65;102396.53;5089510;28;19938;-73
2022/12/03 04:08:27;;;;;;;;;;;;;;;2.01;93.46;102400.00;5089770;28;20198;-73
2022/12/03 04:13:36;;;;;;;;;;;;;;;1.99;92.75;102387.91;5090900;28;19923;-73
2022/12/03 04:16:01;;;;;;;;;;;;;;;2.00;92.79;102385.38;5090968;28;19953;-73
2022/12/03 04:18:41;;;;;;;;;;;;;;;2.00;93.09;102380.19;5092503;28;19987;-73
2022/12/03 04:23:50;;;;;;;;;;;;;;;2.05;93.84;102375.97;5089387;28;20172;-73
2022/12/03 04:28:59;;;;;;;;;;;;;;;2.08;93.48;102370.88;5092355;28;19928;-73
2022/12/03 04:36:53;;;;;;;;;;;;;;;2.15;93.00;102373.56;5089503;28;19927;-73
2022/12/03 04:39:19;;;;;;;;;;;;;;;2.17;93.22;102371.91;5087643;28;19920;-73
2022/12/03 04:41:44;;;;;;;;;;;;;;;2.18;93.28;102371.91;5088453;28;20123;-73
2022/12/03 04:46:53;;;;;;;;;;;;;;;2.18;93.11;102360.69;5086711;28;19947;-73
2022/12/03 04:49:18;;;;;;;;;;;;;;;2.16;92.88;102362.38;5091375;28;19916;-73
2022/12/03 04:51:43;;;;;;;;;;;;;;;2.17;93.04;102362.41;5086769;28;20062;-73
2022/12/03 04:54:08;;;;;;;;;;;;;;;2.18;93.19;102360.69;5090531;28;20325;-73
2022/12/03 04:56:34;;;;;;;;;;;;;;;2.20;93.45;102361.59;5088702;28;19970;-73
2022/12/03 04:58:59;;;;;;;;;;;;;;;2.19;93.38;102352.97;5090575;28;20146;-73
2022/12/03 05:01:24;;;;;;;;;;;;;;;2.19;93.05;102360.72;5090659;28;20235;-73
2022/12/03 05:03:50;;;;;;;;;;;;;;;2.19;93.03;102358.13;5090627;28;19920;-73
2022/12/03 05:06:15;;;;;;;;;;;;;;;2.19;92.64;102363.31;5090107;28;19924;-73
2022/12/03 05:08:40;;;;;;;;;;;;;;;2.16;92.27;102346.88;5090073;28;19928;-73
2022/12/03 05:11:05;;;;;;;;;;;;;;;2.17;92.80;102353.81;5090580;28;20192;-73
2022/12/03 05:13:31;;;;;;;;;;;;;;;2.19;93.50;102355.56;5088502;28;20246;-73
2022/12/03 05:15:56;;;;;;;;;;;;;;;2.20;93.45;102356.41;5089238;28;20171;-73
2022/12/03 05:18:21;;;;;;;;;;;;;;;2.17;92.99;102346.03;5088728;28;19971;-73
2022/12/03 05:20:46;;;;;;;;;;;;;;;2.15;92.70;102343.44;5091507;28;20228;-73
2022/12/03 05:23:12;;;;;;;;;;;;;;;2.15;92.72;102343.44;5088903;28;20135;-73
2022/12/03 05:25:38;;;;;;;;;;;;;;;2.16;93.01;102337.41;5088232;28;19928;-73
2022/12/03 05:28:04;;;;;;;;;;;;;;;2.16;92.86;102342.56;5087524;28;19947;-73
2022/12/03 05:30:29;;;;;;;;;;;;;;;2.20;93.21;102338.31;5087820;28;19998;-73
2022/12/03 05:32:54;;;;;;;;;;;;;;;2.22;93.35;102346.97;5090779;28;19934;-73
2022/12/03 05:35:20;;;;;;;;;;;;;;;2.23;93.48;102341.84;5084974;28;20279;-73
2022/12/03 05:37:45;;;;;;;;;;;;;;;2.25;93.66;102332.38;5090414;28;20121;-73
2022/12/03 05:40:11;;;;;;;;;;;;;;;2.27;93.70;102338.50;5089318;28;20219;-73
2022/12/03 05:45:21;;;;;;;;;;;;;;;2.28;93.22;102337.63;5087997;28;20007;-73
2022/12/03 05:47:46;;;;;;;;;;;;;;;2.29;93.80;102336.78;5089180;28;19908;-73
2022/12/03 05:50:11;;;;;;;;;;;;;;;2.29;93.40;102335.91;5088101;28;20234;-73
2022/12/03 05:52:37;;;;;;;;;;;;;;;2.28;93.16;102329.00;5090834;28;19943;-73
2022/12/03 05:55:02;;;;;;;;;;;;;;;2.28;93.21;102332.44;5089856;28;19920;-73
2022/12/03 05:57:27;;;;;;;;;;;;;;;2.28;93.08;102335.03;5089578;28;19983;-73
2022/12/03 05:59:53;;;;;;;;;;;;;;;2.27;92.77;102329.84;5087657;28;19917;-73
2022/12/03 06:02:18;;;;;;;;;;;;;;;2.27;92.78;102316.91;5089078;28;19927;-73
2022/12/03 06:04:43;;;;;;;;;;;;;;;2.27;92.99;102319.50;5086880;28;19928;-73
2022/12/03 06:07:08;;;;;;;;;;;;;;;2.26;92.35;102318.63;5088947;28;20158;-74
2022/12/03 06:09:34;;;;;;;;;;;;;;;2.24;91.86;102322.06;5088713;28;19990;-74
2022/12/03 06:11:59;;;;;;;;;;;;;;;2.21;91.33;102315.09;5090972;28;19963;-74
2022/12/03 06:14:25;;;;;;;;;;;;;;;2.21;91.38;102319.41;5087477;28;19931;-74
2022/12/03 06:16:50;;;;;;;;;;;;;;;2.20;91.85;102320.22;5088978;28;19916;-74
2022/12/03 06:19:16;;;;;;;;;;;;;;;2.17;91.80;102310.72;5087285;28;19923;-74
2022/12/03 06:21:41;;;;;;;;;;;;;;;2.18;91.97;102316.75;5088027;28;19947;-74
2022/12/03 06:24:06;;;;;;;;;;;;;;;2.17;92.08;102309.84;5090089;28;19951;-74
2022/12/03 06:26:31;;;;;;;;;;;;;;;2.16;92.39;102314.13;5089060;28;19983;-74
2022/12/03 06:28:57;;;;;;;;;;;;;;;2.18;92.48;102309.00;5089965;28;19928;-74
2022/12/03 06:31:22;;;;;;;;;;;;;;;2.18;92.33;102303.81;5088553;28;20146;-74
2022/12/03 06:33:47;;;;;;;;;;;;;;;2.20;92.24;102299.56;5089199;28;20031;-74
2022/12/03 06:36:13;;;;;;;;;;;;;;;2.19;91.33;102305.59;5084159;28;19916;-74
2022/12/03 06:38:38;;;;;;;;;;;;;;;2.17;91.45;102300.38;5089047;28;19919;-74
2022/12/03 06:41:03;;;;;;;;;;;;;;;2.15;91.49;102299.50;5085111;28;20250;-74
2022/12/03 06:43:29;;;;;;;;;;;;;;;2.15;91.13;102302.06;5087163;28;19912;-74
2022/12/03 06:45:55;;;;;;;;;;;;;;;2.18;92.07;102296.06;5084739;28;19950;-74
2022/12/03 06:48:20;;;;;;;;;;;;;;;2.18;91.96;102296.94;5088131;28;19916;-74
2022/12/03 06:50:46;;;;;;;;;;;;;;;2.19;91.51;102297.84;5088545;28;19951;-74
2022/12/03 06:53:11;;;;;;;;;;;;;;;2.18;90.75;102301.25;5089564;28;19920;-74
2022/12/03 06:55:36;;;;;;;;;;;;;;;2.18;90.53;102298.66;5088921;28;19924;-74
2022/12/03 06:58:02;;;;;;;;;;;;;;;2.16;90.23;102301.22;5088614;28;19991;-74
2022/12/03 07:00:27;;;;;;;;;;;;;;;2.16;89.95;102300.34;5087017;28;19958;-74
2022/12/03 07:02:52;;;;;;;;;;;;;;;2.17;90.32;102296.94;5089075;28;19920;-74
2022/12/03 07:05:18;;;;;;;;;;;;;;;2.18;90.63;102303.81;5086257;28;20132;-74
2022/12/03 07:07:44;;;;;;;;;;;;;;;2.21;91.30;102303.88;5089428;28;19935;-74
2022/12/03 07:10:09;;;;;;;;;;;;;;;2.24;91.78;102298.78;5089494;28;19932;-74
2022/12/03 07:12:34;;;;;;;;;;;;;;;2.29;92.00;102303.19;5091155;28;19979;-74
2022/12/03 07:15:00;;;;;;;;;;;;;;;2.35;92.63;102310.16;5093558;28;19931;-74
2022/12/03 07:17:25;;;;;;;;;;;;;;;2.38;92.03;102315.38;5093235;28;20154;-74
2022/12/03 07:19:50;;;;;;;;;;;;;;;2.42;92.33;102317.19;5092976;28;20235;-74
2022/12/03 07:22:16;;;;;;;;;;;;;;;2.42;91.75;102313.72;5092502;28;19924;-74
2022/12/03 07:24:41;;;;;;;;;;;;;;;2.42;91.36;102314.59;5092129;28;19908;-74
2022/12/03 07:27:06;;;;;;;;;;;;;;;2.42;91.53;102316.28;5090644;28;19970;-74
2022/12/03 07:29:32;;;;;;;;;;;;;;;2.43;91.77;102313.75;5093725;28;19921;-74
2022/12/03 07:31:57;;;;;;;;;;;;;;;2.43;91.76;102325.81;5091092;28;19923;-74
2022/12/03 07:34:22;;;;;;;;;;;;;;;2.43;91.96;102315.47;5090036;28;19924;-74
2022/12/03 07:36:47;;;;;;;;;;;;;;;2.44;91.97;102322.38;5091569;28;19924;-74
2022/12/03 07:39:13;;;;;;;;;;;;;;;2.43;91.81;102318.91;5092148;28;19920;-74
2022/12/03 07:41:38;;;;;;;;;;;;;;;2.44;91.86;102320.66;5091293;28;19956;-74
2022/12/03 07:44:03;;;;;;;;;;;;;;;2.46;92.32;102323.28;5090104;28;20114;-74
2022/12/03 07:46:29;;;;;;;;;;;;;;;2.45;92.28;102314.63;5089947;28;19995;-74
2022/12/03 07:48:54;;;;;;;;;;;;;;;2.46;92.31;102310.34;5093697;28;19987;-74
2022/12/03 07:51:19;;;;;;;;;;;;;;;2.45;92.51;102309.47;5089850;28;19915;-74
2022/12/03 07:53:44;;;;;;;;;;;;;;;2.43;92.11;102305.97;5092694;28;19947;-74
2022/12/03 07:56:10;;;;;;;;;;;;;;;2.41;92.02;102309.41;5091644;28;19920;-74
2022/12/03 07:58:38;;;;;;;;;;;;;;;2.40;92.11;102316.31;5090957;28;19943;-74
2022/12/03 08:01:03;;;;;;;;;;;;;;;2.39;92.24;102308.50;5090184;28;20216;-74
2022/12/03 08:03:28;;;;;;;;;;;;;;;2.36;91.91;102311.03;5090392;28;19959;-74
2022/12/03 08:05:54;;;;;;;;;;;;;;;2.35;91.69;102314.44;5091803;28;20151;-74
2022/12/03 08:08:19;;;;;;;;;;;;;;;2.29;91.06;102307.47;5092284;28;19929;-74
2022/12/03 08:10:44;;;;;;;;;;;;;;;2.25;90.74;102300.50;5090527;28;19924;-74
2022/12/03 08:13:11;;;;;;;;;;;;;;;2.22;90.79;102301.34;5091930;28;19975;-74
2022/12/03 08:15:37;;;;;;;;;;;;;;;2.23;91.21;102300.47;5092059;28;19928;-73
2022/12/03 08:18:06;;;;;;;;;;;;;;;2.22;91.44;102303.91;5092077;28;19920;-73
2022/12/03 08:20:33;;;;;;;;;;;;;;;2.23;91.51;102307.38;5091437;28;19928;-73
2022/12/03 08:22:58;;;;;;;;;;;;;;;2.22;91.50;102306.50;5090110;28;19929;-73
2022/12/03 08:25:25;;;;;;;;;;;;;;;2.24;91.11;102309.13;5091866;28;19924;-73
2022/12/03 08:27:51;;;;;;;;;;;;;;;2.25;91.61;102309.13;5091624;28;20195;-73
2022/12/03 08:30:17;;;;;;;;;;;;;;;2.27;91.66;102306.56;5090727;28;20241;-73
2022/12/03 08:32:43;;;;;;;;;;;;;;;2.29;92.13;102308.34;5091657;28;19912;-75
2022/12/03 08:35:10;;;;;;;;;;;;;;;2.33;92.18;102303.22;5090471;28;20227;-73
2022/12/03 08:37:35;;;;;;;;;;;;;;;2.35;92.21;102301.53;5087514;28;20150;-73
2022/12/03 08:40:01;;;;;;;;;;;;;;;2.38;92.40;102304.16;5086930;28;20268;-73
2022/12/03 08:42:42;;;;;;;;;;;;;;;2.40;92.44;102305.06;5085374;28;19954;-75
2022/12/03 08:45:26;;;;;;;;;;;;;;;2.42;92.79;102288.75;5085638;28;19951;-73
2022/12/03 08:47:54;;;;;;;;;;;;;;;2.44;92.32;102296.53;5087206;28;20227;-74
2022/12/03 08:50:22;;;;;;;;;;;;;;;2.45;92.29;102293.94;5087358;28;19914;-74
2022/12/03 08:52:47;;;;;;;;;;;;;;;2.47;92.20;102292.28;5088892;28;20223;-74
2022/12/03 08:55:33;;;;;;;;;;;;;;;2.46;91.93;102292.25;5086128;28;19912;-74
2022/12/03 08:57:59;;;;;;;;;;;;;;;2.48;92.35;102288.84;5089174;28;19943;-74
2022/12/03 09:00:24;;;;;;;;;;;;;;;2.51;92.58;102293.19;5081967;28;19943;-74
2022/12/03 09:02:51;;;;;;;;;;;;;;;2.51;91.93;102288.03;5086662;28;19934;-74
2022/12/03 09:05:26;;;;;;;;;;;;;;;2.49;91.13;102290.59;5084575;28;20193;-74
2022/12/03 09:07:52;;;;;;;;;;;;;;;2.48;91.53;102285.38;5086273;28;19936;-73
2022/12/03 09:10:17;;;;;;;;;;;;;;;2.49;91.60;102284.53;5086044;28;20575;-75
2022/12/03 09:12:42;;;;;;;;;;;;;;;2.49;91.34;102293.16;5083955;28;19975;-75
2022/12/03 09:15:08;;;;;;;;;;;;;;;2.48;91.29;102295.72;5088406;28;19983;-75
2022/12/03 09:17:33;;;;;;;;;;;;;;;2.49;91.17;102290.59;5086791;28;19951;-75
2022/12/03 09:19:58;;;;;;;;;;;;;;;2.50;91.34;102294.91;5085463;28;19924;-75
2022/12/03 09:22:23;;;;;;;;;;;;;;;2.49;90.83;102293.16;5090665;28;19927;-75
2022/12/03 09:24:49;;;;;;;;;;;;;;;2.50;91.28;102291.44;5086022;28;19924;-75
2022/12/03 09:27:14;;;;;;;;;;;;;;;2.51;91.56;102282.84;5086476;28;20024;-75
2022/12/03 09:29:39;;;;;;;;;;;;;;;2.50;91.21;102289.72;5087784;28;20196;-75
2022/12/03 09:32:04;;;;;;;;;;;;;;;2.50;91.15;102279.38;5089376;28;20226;-75
2022/12/03 09:34:29;;;;;;;;;;;;;;;2.50;91.31;102284.56;5084909;28;19947;-75
2022/12/03 09:36:55;;;;;;;;;;;;;;;2.53;91.24;102288.91;5086580;28;19924;-73
2022/12/03 09:39:20;;;;;;;;;;;;;;;2.48;90.34;102293.13;5086287;28;19920;-75
2022/12/03 09:41:45;;;;;;;;;;;;;;;2.44;89.99;102289.63;5084356;28;19920;-75
2022/12/03 09:44:11;;;;;;;;;;;;;;;2.42;90.45;102283.56;5088614;28;20112;-75
2022/12/03 09:46:37;;;;;;;;;;;;;;;2.44;90.99;102288.78;5083678;28;19920;-75
2022/12/03 09:49:03;;;;;;;;;;;;;;;2.43;90.79;102281.84;5090588;28;19920;-75
2022/12/03 09:51:30;;;;;;;;;;;;;;;2.44;91.12;102287.06;5083583;28;19924;-75
2022/12/03 09:53:57;;;;;;;;;;;;;;;2.44;91.02;102287.06;5085645;28;19927;-75
2022/12/03 09:56:22;;;;;;;;;;;;;;;2.47;91.39;102284.53;5086754;28;19926;-75
2022/12/03 09:58:48;;;;;;;;;;;;;;;2.48;91.22;102286.25;5088843;28;20119;-75
2022/12/03 10:01:14;;;;;;;;;;;;;;;2.50;91.11;102281.97;5085416;28;20108;-75
2022/12/03 10:03:42;;;;;;;;;;;;;;;2.52;91.08;102291.47;5087613;28;19979;-75
2022/12/03 10:06:10;;;;;;;;;;;;;;;2.46;90.43;102280.19;5084501;28;19919;-75
2022/12/03 10:08:35;;;;;;;;;;;;;;;2.46;90.90;102285.34;5090033;28;19961;-75
2022/12/03 10:11:00;;;;;;;;;;;;;;;2.44;90.63;102281.88;5084906;28;19924;-75
2022/12/03 10:13:30;;;;;;;;;;;;;;;2.41;90.53;102288.72;5089613;28;20267;-75
2022/12/03 10:15:57;;;;;;;;;;;;;;;2.38;90.33;102291.25;5088840;28;19960;-75
2022/12/03 10:18:24;;;;;;;;;;;;;;;2.35;91.06;102284.31;5087741;28;19962;-75
2022/12/03 10:20:50;;;;;;;;;;;;;;;2.32;90.87;102291.16;5087019;28;19920;-75
2022/12/03 10:23:20;;;;;;;;;;;;;;;2.30;91.06;102283.38;5086881;28;19917;-75
2022/12/03 10:25:49;;;;;;;;;;;;;;;2.29;90.96;102281.59;5089342;28;19939;-75
2022/12/03 10:28:25;;;;;;;;;;;;;;;2.28;91.57;102274.72;5085825;28;20230;-74
2022/12/03 10:30:56;;;;;;;;;;;;;;;2.30;91.85;102267.84;5090294;28;19920;-75
2022/12/03 10:33:27;;;;;;;;;;;;;;;2.32;91.66;102271.31;5086590;28;19920;-75
2022/12/03 10:35:52;;;;;;;;;;;;;;;2.28;90.99;102265.22;5089344;28;19919;-75
2022/12/03 10:38:17;;;;;;;;;;;;;;;2.31;91.49;102261.84;5086463;28;19931;-75
2022/12/03 10:40:43;;;;;;;;;;;;;;;2.32;91.21;102260.13;5088193;28;20117;-75
2022/12/03 10:43:26;;;;;;;;;;;;;;;2.34;91.55;102248.94;5087233;28;19924;-75
2022/12/03 10:46:00;;;;;;;;;;;;;;;2.34;91.18;102253.25;5087164;28;20206;-75
2022/12/03 10:48:26;;;;;;;;;;;;;;;2.33;90.70;102252.41;5088551;28;20097;-76
2022/12/03 10:50:53;;;;;;;;;;;;;;;2.32;90.72;102250.66;5087369;28;19924;-76
2022/12/03 10:53:19;;;;;;;;;;;;;;;2.29;90.95;102248.91;5082833;28;20234;-76
2022/12/03 10:55:45;;;;;;;;;;;;;;;2.26;90.31;102246.25;5088280;28;19920;-76
2022/12/03 10:58:33;;;;;;;;;;;;;;;2.29;91.03;102250.59;5087129;28;20175;-76
2022/12/03 11:01:02;;;;;;;;;;;;;;;2.30;91.47;102237.69;5071560;28;19923;-76
2022/12/03 11:03:28;;;;;;;;;;;;;;;2.31;91.41;102233.41;5086370;28;20359;-76
2022/12/03 11:05:54;;;;;;;;;;;;;;;2.30;91.01;102236.84;5089417;28;20132;-76
2022/12/03 11:08:22;;;;;;;;;;;;;;;2.30;90.87;102229.06;5087252;28;19974;-76
2022/12/03 11:10:56;;;;;;;;;;;;;;;2.32;91.19;102229.09;5089766;28;19947;-76
2022/12/03 11:13:25;;;;;;;;;;;;;;;2.31;90.89;102228.25;5088965;28;19916;-76
2022/12/03 11:15:51;;;;;;;;;;;;;;;2.33;91.16;102217.91;5090014;28;19916;-76
2022/12/03 11:18:49;;;;;;;;;;;;;;;2.32;90.80;102218.75;5088086;28;19923;-76
2022/12/03 11:21:14;;;;;;;;;;;;;;;2.29;90.83;102220.47;5048596;28;19916;-76
2022/12/03 11:24:00;;;;;;;;;;;;;;;2.30;90.94;102213.56;5088464;28;19945;-75
2022/12/03 11:26:28;;;;;;;;;;;;;;;2.32;91.12;102214.44;5087319;28;19923;-75
2022/12/03 11:28:54;;;;;;;;;;;;;;;2.32;91.07;102206.69;5086208;28;20134;-76
2022/12/03 11:31:34;;;;;;;;;;;;;;;2.32;90.78;102208.41;5087548;28;19978;-76
2022/12/03 11:34:30;;;;;;;;;;;;;;;2.30;90.58;102204.06;5088470;28;19989;-76
2022/12/03 11:37:10;;;;;;;;;;;;;;;2.31;90.52;102204.97;5070550;28;19987;-76
2022/12/03 11:39:48;;;;;;;;;;;;;;;2.29;90.79;102202.34;5081787;28;20135;-76
2022/12/03 11:42:25;;;;;;;;;;;;;;;2.25;90.46;102186.75;5082178;28;19963;-76
2022/12/03 11:45:02;;;;;;;;;;;;;;;2.24;90.39;102190.22;5086638;28;19912;-76
2022/12/03 11:47:28;;;;;;;;;;;;;;;2.26;90.57;102188.50;5086742;28;19919;-76
2022/12/03 11:49:54;;;;;;;;;;;;;;;2.24;90.32;102192.78;5084820;28;19930;-76
2022/12/03 11:52:38;;;;;;;;;;;;;;;2.21;90.53;102185.84;5086611;28;19916;-76
2022/12/03 11:55:13;;;;;;;;;;;;;;;2.22;90.69;102178.94;5084906;28;19966;-76
2022/12/03 11:57:39;;;;;;;;;;;;;;;2.17;90.53;102178.03;5088426;28;19999;-76
2022/12/03 12:00:12;;;;;;;;;;;;;;;2.11;90.55;102190.00;5088860;28;19924;-76
2022/12/03 12:02:37;;;;;;;;;;;;;;;2.09;90.68;102180.47;5091427;28;19930;-76
2022/12/03 12:05:29;;;;;;;;;;;;;;;2.10;91.04;102172.75;5090316;28;19924;-76
2022/12/03 12:07:55;;;;;;;;;;;;;;;2.14;91.54;102172.81;5085870;28;20463;-76
2022/12/03 12:10:40;;;;;;;;;;;;;;;2.15;91.73;102169.38;5080499;28;19956;-76
2022/12/03 12:13:12;;;;;;;;;;;;;;;2.16;91.54;102168.53;5088185;28;19926;-76
2022/12/03 12:15:37;;;;;;;;;;;;;;;2.14;91.23;102171.09;5076488;28;19935;-76
2022/12/03 12:18:21;;;;;;;;;;;;;;;2.14;91.44;102163.34;5085951;28;20200;-76
2022/12/03 12:20:47;;;;;;;;;;;;;;;2.15;91.51;102157.34;5089308;28;19920;-76
2022/12/03 12:23:26;;;;;;;;;;;;;;;2.18;91.55;102159.94;5091226;28;20119;-76
2022/12/03 12:25:51;;;;;;;;;;;;;;;2.20;91.51;102154.78;5086355;28;19920;-76
2022/12/03 12:28:17;;;;;;;;;;;;;;;2.21;91.45;102148.81;5090490;28;19949;-76
2022/12/03 12:30:42;;;;;;;;;;;;;;;2.23;91.87;102150.53;5087166;28;19927;-76
2022/12/03 12:33:07;;;;;;;;;;;;;;;2.20;91.08;102145.34;5086642;28;19924;-76
2022/12/03 12:35:32;;;;;;;;;;;;;;;2.22;91.29;102137.59;5084891;28;19919;-75
2022/12/03 12:37:58;;;;;;;;;;;;;;;2.21;91.47;102141.91;5089815;28;20462;-75
2022/12/03 12:40:25;;;;;;;;;;;;;;;2.22;91.03;102145.34;5088948;28;20204;-76
2022/12/03 12:43:11;;;;;;;;;;;;;;;2.18;90.34;102140.97;5089743;28;20212;-76
2022/12/03 12:45:40;;;;;;;;;;;;;;;2.15;89.92;102143.50;5079804;28;20011;-76
2022/12/03 12:48:26;;;;;;;;;;;;;;;2.16;90.60;102148.72;5089874;28;19916;-76
2022/12/03 12:51:08;;;;;;;;;;;;;;;2.13;90.30;102146.09;5091053;28;20483;-76
2022/12/03 12:53:34;;;;;;;;;;;;;;;2.12;90.35;102157.28;5087176;28;19920;-76
2022/12/03 12:56:01;;;;;;;;;;;;;;;2.09;90.58;102145.19;5087017;28;20236;-76
2022/12/03 12:58:29;;;;;;;;;;;;;;;2.05;90.53;102142.53;5086036;28;20231;-76
2022/12/03 13:00:55;;;;;;;;;;;;;;;2.04;90.84;102144.25;5089306;28;19974;-76
2022/12/03 13:03:22;;;;;;;;;;;;;;;1.98;91.17;102140.69;5082788;28;19928;-76
2022/12/03 13:05:48;;;;;;;;;;;;;;;1.93;91.38;102143.22;5088732;28;20226;-75
2022/12/03 13:08:21;;;;;;;;;;;;;;;1.90;91.61;102138.84;5089757;28;19924;-75
2022/12/03 13:10:47;;;;;;;;;;;;;;;1.90;92.11;102133.69;5085061;28;19924;-75